Wetterdaten: Woche 15.11.04 - 21.11.04 (KW47)
Datum Zeit Temperatur Luftfeuchte Luftdruck Niederschlag Taupunkt Windchill Wind
15.11.2004 00:00 -3,3 C 87 % 1027 hPa 0,0 l/m -5,1 C -4,6 C 8,0 km/h (2 Bft)
15.11.2004 01:00 -3,2 C 90 % 1027 hPa 0,0 l/m -4,6 C -5,3 C 9,3 km/h (2 Bft)
15.11.2004 02:00 -3,0 C 91 % 1027 hPa 0,0 l/m -4,2 C -5,2 C 9,4 km/h (2 Bft)
15.11.2004 03:00 -3,4 C 92 % 1027 hPa 0,0 l/m -4,5 C -4,3 C 8,1 km/h (2 Bft)
15.11.2004 04:00 -3,9 C 92 % 1026 hPa 0,0 l/m -4,9 C -4,7 C 5,6 km/h (1 Bft)
15.11.2004 05:00 -4,3 C 93 % 1026 hPa 0,0 l/m -5,2 C -4,5 C 2,5 km/h (1 Bft)
15.11.2004 06:00 -4,3 C 95 % 1026 hPa 0,0 l/m -5,0 C -4,6 C 4,1 km/h (1 Bft)
15.11.2004 07:00 -4,4 C 97 % 1026 hPa 0,0 l/m -4,8 C -5,2 C 5,3 km/h (1 Bft)
15.11.2004 08:00 -3,5 C 99 % 1026 hPa 0,0 l/m -3,7 C -6,4 C 9,1 km/h (2 Bft)
15.11.2004 09:00 -2,5 C 99 % 1026 hPa 0,0 l/m -2,7 C -5,2 C 10,0 km/h (2 Bft)
15.11.2004 10:00 -1,5 C 92 % 1027 hPa 0,0 l/m -2,7 C -6,6 C 12,9 km/h (3 Bft)
15.11.2004 11:00 -1,0 C 83 % 1027 hPa 0,0 l/m -3,6 C -6,7 C 13,9 km/h (3 Bft)
15.11.2004 12:00 0,2 C 76 % 1026 hPa 0,0 l/m -3,5 C -4,3 C 12,6 km/h (3 Bft)
15.11.2004 13:00 2,0 C 65 % 1025 hPa 0,0 l/m -3,8 C -0,6 C 9,3 km/h (2 Bft)
15.11.2004 14:00 2,5 C 62 % 1025 hPa 0,0 l/m -4,1 C 0,1 C 9,8 km/h (2 Bft)
15.11.2004 15:00 1,3 C 67 % 1025 hPa 0,0 l/m -4,1 C 0,6 C 6,2 km/h (2 Bft)
15.11.2004 16:00 -0,2 C 75 % 1024 hPa 0,0 l/m -4,2 C -0,2 C 0,0 km/h (0 Bft)
15.11.2004 17:00 -1,8 C 79 % 1024 hPa 0,0 l/m -4,9 C -1,8 C 0,0 km/h (0 Bft)
15.11.2004 18:00 -2,9 C 83 % 1025 hPa 0,0 l/m -5,4 C -2,9 C 0,0 km/h (0 Bft)
15.11.2004 19:00 -3,6 C 86 % 1025 hPa 0,0 l/m -5,6 C -3,6 C 0,0 km/h (0 Bft)
15.11.2004 20:00 -4,2 C 88 % 1025 hPa 0,0 l/m -5,8 C -4,2 C 0,0 km/h (0 Bft)
15.11.2004 21:00 -4,7 C 89 % 1025 hPa 0,0 l/m -6,2 C -4,7 C 0,0 km/h (0 Bft)
15.11.2004 22:00 -5,1 C 92 % 1025 hPa 0,0 l/m -6,2 C -5,1 C 0,0 km/h (0 Bft)
15.11.2004 23:00 -5,5 C 92 % 1025 hPa 0,0 l/m -6,6 C -5,5 C 0,0 km/h (0 Bft)
16.11.2004 00:00 -5,8 C 92 % 1026 hPa 0,0 l/m -6,9 C -5,8 C 0,0 km/h (0 Bft)
16.11.2004 01:00 -6,1 C 93 % 1026 hPa 0,0 l/m -7,1 C -6,1 C 0,0 km/h (0 Bft)
16.11.2004 02:00 -6,3 C 93 % 1026 hPa 0,0 l/m -7,2 C -6,3 C 0,0 km/h (0 Bft)
16.11.2004 03:00 -6,5 C 93 % 1026 hPa 0,0 l/m -7,4 C -6,5 C 0,0 km/h (0 Bft)
16.11.2004 04:00 -6,5 C 93 % 1026 hPa 0,0 l/m -7,4 C -6,5 C 0,0 km/h (0 Bft)
16.11.2004 05:00 -6,0 C 94 % 1026 hPa 0,0 l/m -6,8 C -6,0 C 0,0 km/h (0 Bft)
16.11.2004 06:00 -4,0 C 99 % 1026 hPa 0,0 l/m -4,2 C -5,7 C 8,2 km/h (2 Bft)
16.11.2004 07:00 -2,9 C 100 % 1027 hPa 0,0 l/m -2,9 C -7,3 C 12,5 km/h (3 Bft)
16.11.2004 08:00 -2,5 C 100 % 1028 hPa 0,0 l/m -2,5 C -4,3 C 8,8 km/h (2 Bft)
16.11.2004 09:00 -2,2 C 100 % 1028 hPa 0,0 l/m -2,2 C -3,7 C 9,1 km/h (2 Bft)
16.11.2004 10:00 -1,4 C 100 % 1028 hPa 0,0 l/m -1,4 C -4,1 C 10,0 km/h (2 Bft)
16.11.2004 11:00 -0,3 C 100 % 1028 hPa 1,0 l/m -0,3 C -3,9 C 12,2 km/h (2 Bft)
16.11.2004 12:00 0,9 C 95 % 1028 hPa 0,0 l/m 0,2 C -2,6 C 11,3 km/h (2 Bft)
16.11.2004 13:00 2,0 C 88 % 1028 hPa 0,0 l/m 0,1 C 0,4 C 8,4 km/h (2 Bft)
16.11.2004 14:00 2,5 C 80 % 1028 hPa 0,0 l/m -0,6 C 0,1 C 10,2 km/h (2 Bft)
16.11.2004 15:00 2,5 C 79 % 1028 hPa 0,0 l/m -0,7 C 1,3 C 6,6 km/h (2 Bft)
16.11.2004 16:00 1,9 C 82 % 1028 hPa 0,0 l/m -0,8 C -0,6 C 9,7 km/h (2 Bft)
16.11.2004 17:00 1,5 C 84 % 1028 hPa 0,0 l/m -0,9 C -2,2 C 11,5 km/h (2 Bft)
16.11.2004 18:00 1,5 C 84 % 1029 hPa 0,0 l/m -0,9 C -2,5 C 12,3 km/h (3 Bft)
16.11.2004 19:00 1,2 C 85 % 1029 hPa 0,0 l/m -1,1 C -2,1 C 11,1 km/h (2 Bft)
16.11.2004 20:00 0,8 C 87 % 1029 hPa 0,0 l/m -1,1 C 0,3 C 4,3 km/h (1 Bft)
16.11.2004 21:00 -0,1 C 89 % 1029 hPa 0,0 l/m -1,7 C -0,2 C 1,0 km/h (0 Bft)
16.11.2004 22:00 -1,0 C 91 % 1029 hPa 0,0 l/m -2,4 C -1,1 C 0,4 km/h (0 Bft)
16.11.2004 23:00 -1,5 C 93 % 1029 hPa 0,0 l/m -2,6 C -1,5 C 0,0 km/h (0 Bft)
17.11.2004 00:00 -1,9 C 95 % 1028 hPa 0,0 l/m -2,5 C -1,9 C 0,0 km/h (0 Bft)
17.11.2004 01:00 -2,1 C 97 % 1028 hPa 0,0 l/m -2,4 C -2,1 C 0,0 km/h (0 Bft)
17.11.2004 02:00 -1,4 C 99 % 1028 hPa 0,0 l/m -1,6 C -2,3 C 3,8 km/h (1 Bft)
17.11.2004 03:00 -0,6 C 100 % 1028 hPa 0,0 l/m -0,6 C -3,4 C 9,9 km/h (2 Bft)
17.11.2004 04:00 -0,3 C 99 % 1028 hPa 0,0 l/m -0,4 C -3,0 C 10,0 km/h (2 Bft)
17.11.2004 05:00 -0,0 C 99 % 1028 hPa 0,0 l/m -0,2 C -3,6 C 11,4 km/h (2 Bft)
17.11.2004 06:00 1,0 C 92 % 1028 hPa 0,0 l/m -0,2 C -3,9 C 14,1 km/h (3 Bft)
17.11.2004 07:00 0,8 C 90 % 1028 hPa 0,0 l/m -0,7 C -2,3 C 11,0 km/h (2 Bft)
17.11.2004 08:00 0,8 C 92 % 1028 hPa 0,0 l/m -0,2 C -5,6 C 16,8 km/h (3 Bft)
17.11.2004 09:00 1,1 C 91 % 1028 hPa 0,0 l/m -0,3 C -6,7 C 19,4 km/h (3 Bft)
17.11.2004 10:00 2,2 C 83 % 1028 hPa 0,0 l/m -0,5 C -4,6 C 17,8 km/h (3 Bft)
17.11.2004 11:00 3,1 C 77 % 1028 hPa 0,0 l/m -0,6 C -4,6 C 21,0 km/h (4 Bft)
17.11.2004 12:00 3,8 C 74 % 1027 hPa 0,0 l/m -0,4 C -3,9 C 21,3 km/h (4 Bft)
17.11.2004 13:00 3,8 C 75 % 1027 hPa 0,0 l/m -0,2 C -1,5 C 15,7 km/h (3 Bft)
17.11.2004 14:00 4,2 C 76 % 1027 hPa 0,0 l/m 0,4 C -0,7 C 14,2 km/h (3 Bft)
17.11.2004 15:00 4,5 C 76 % 1026 hPa 0,0 l/m 0,7 C -1,4 C 17,3 km/h (3 Bft)
17.11.2004 16:00 4,6 C 77 % 1026 hPa 0,0 l/m 1,0 C -1,6 C 17,6 km/h (3 Bft)
17.11.2004 17:00 4,6 C 80 % 1026 hPa 0,0 l/m 1,4 C -1,3 C 16,9 km/h (3 Bft)
17.11.2004 18:00 4,5 C 82 % 1026 hPa 0,0 l/m 1,7 C -1,5 C 16,5 km/h (3 Bft)
17.11.2004 19:00 4,9 C 81 % 1026 hPa 0,0 l/m 2,0 C -1,7 C 18,9 km/h (3 Bft)
17.11.2004 20:00 5,0 C 82 % 1026 hPa 0,0 l/m 2,1 C -0,1 C 16,2 km/h (3 Bft)
17.11.2004 21:00 4,8 C 81 % 1025 hPa 0,0 l/m 1,9 C -1,2 C 17,3 km/h (3 Bft)
17.11.2004 22:00 5,1 C 79 % 1025 hPa 0,0 l/m 1,7 C -1,4 C 18,6 km/h (3 Bft)
17.11.2004 23:00 5,4 C 77 % 1025 hPa 0,0 l/m 1,7 C 0,0 C 16,7 km/h (3 Bft)
18.11.2004 00:00 5,4 C 77 % 1024 hPa 0,0 l/m 1,8 C -1,7 C 21,5 km/h (4 Bft)
18.11.2004 01:00 5,5 C 78 % 1024 hPa 0,0 l/m 1,9 C -1,9 C 21,6 km/h (4 Bft)
18.11.2004 02:00 5,6 C 78 % 1023 hPa 0,0 l/m 2,0 C -0,5 C 18,6 km/h (3 Bft)
18.11.2004 03:00 5,8 C 77 % 1023 hPa 0,0 l/m 2,0 C -0,1 C 17,6 km/h (3 Bft)
18.11.2004 04:00 6,0 C 77 % 1022 hPa 0,0 l/m 2,3 C -1,2 C 22,6 km/h (4 Bft)
18.11.2004 05:00 6,2 C 75 % 1022 hPa 0,0 l/m 2,1 C -1,6 C 24,0 km/h (4 Bft)
18.11.2004 06:00 6,3 C 75 % 1022 hPa 0,0 l/m 2,1 C -1,5 C 22,9 km/h (4 Bft)
18.11.2004 07:00 6,3 C 74 % 1022 hPa 0,0 l/m 2,0 C -1,0 C 23,1 km/h (4 Bft)
18.11.2004 08:00 6,4 C 73 % 1022 hPa 0,0 l/m 1,9 C -0,1 C 20,2 km/h (4 Bft)
18.11.2004 09:00 6,6 C 72 % 1021 hPa 0,0 l/m 1,9 C -0,1 C 20,1 km/h (4 Bft)
18.11.2004 10:00 7,0 C 71 % 1021 hPa 0,0 l/m 2,1 C -0,2 C 21,8 km/h (4 Bft)
18.11.2004 11:00 7,5 C 68 % 1021 hPa 0,0 l/m 2,1 C -0,3 C 24,9 km/h (4 Bft)
18.11.2004 12:00 7,4 C 67 % 1020 hPa 0,0 l/m 1,8 C -0,4 C 25,4 km/h (4 Bft)
18.11.2004 13:00 7,2 C 69 % 1019 hPa 0,0 l/m 1,8 C 0,9 C 20,9 km/h (4 Bft)
18.11.2004 14:00 7,1 C 69 % 1018 hPa 0,0 l/m 1,9 C 0,9 C 20,1 km/h (4 Bft)
18.11.2004 15:00 7,0 C 69 % 1017 hPa 0,0 l/m 1,8 C -0,1 C 22,3 km/h (4 Bft)
18.11.2004 16:00 6,7 C 72 % 1016 hPa 0,0 l/m 1,9 C 0,1 C 20,7 km/h (4 Bft)
18.11.2004 17:00 6,6 C 71 % 1016 hPa 0,0 l/m 1,8 C 0,2 C 19,8 km/h (3 Bft)
18.11.2004 18:00 6,6 C 71 % 1015 hPa 0,0 l/m 1,7 C 0,3 C 19,9 km/h (4 Bft)
18.11.2004 19:00 6,5 C 70 % 1015 hPa 0,0 l/m 1,5 C -0,7 C 23,3 km/h (4 Bft)
18.11.2004 20:00 6,4 C 71 % 1014 hPa 0,0 l/m 1,5 C -1,7 C 24,2 km/h (4 Bft)
18.11.2004 21:00 6,3 C 71 % 1013 hPa 0,0 l/m 1,4 C -1,7 C 26,1 km/h (4 Bft)
18.11.2004 22:00 6,2 C 71 % 1012 hPa 0,0 l/m 1,4 C -1,2 C 23,9 km/h (4 Bft)
18.11.2004 23:00 6,2 C 71 % 1011 hPa 0,0 l/m 1,3 C -2,1 C 26,1 km/h (4 Bft)
19.11.2004 00:00 6,1 C 72 % 1010 hPa 0,0 l/m 1,4 C -2,2 C 25,7 km/h (4 Bft)
19.11.2004 01:00 5,8 C 76 % 1009 hPa 0,0 l/m 1,9 C -2,6 C 24,5 km/h (4 Bft)
19.11.2004 02:00 6,1 C 74 % 1007 hPa 0,0 l/m 1,9 C -2,3 C 27,9 km/h (4 Bft)
19.11.2004 03:00 6,7 C 72 % 1006 hPa 0,0 l/m 2,0 C -3,0 C 33,3 km/h (5 Bft)
19.11.2004 04:00 6,5 C 76 % 1004 hPa 0,0 l/m 2,5 C -4,0 C 35,1 km/h (5 Bft)
19.11.2004 05:00 5,8 C 84 % 1003 hPa 0,0 l/m 3,4 C -4,7 C 35,0 km/h (5 Bft)
19.11.2004 06:00 5,8 C 87 % 1002 hPa 0,0 l/m 3,8 C -4,3 C 32,2 km/h (5 Bft)
19.11.2004 07:00 5,8 C 91 % 1003 hPa 3,0 l/m 4,5 C -3,7 C 29,5 km/h (5 Bft)
19.11.2004 08:00 2,5 C 89 % 1007 hPa 1,0 l/m 0,8 C -8,4 C 32,5 km/h (5 Bft)
19.11.2004 09:00 1,3 C 80 % 1009 hPa 0,0 l/m -1,7 C -8,1 C 24,0 km/h (4 Bft)
19.11.2004 10:00 1,8 C 71 % 1012 hPa 0,0 l/m -3,0 C -6,4 C 21,7 km/h (4 Bft)
19.11.2004 11:00 2,9 C 62 % 1013 hPa 0,0 l/m -3,8 C -5,2 C 21,1 km/h (4 Bft)
19.11.2004 12:00 3,6 C 54 % 1014 hPa 0,0 l/m -4,9 C -3,5 C 20,2 km/h (4 Bft)
19.11.2004 13:00 3,6 C 51 % 1014 hPa 0,0 l/m -5,6 C -3,9 C 21,2 km/h (4 Bft)
19.11.2004 14:00 2,8 C 61 % 1015 hPa 0,0 l/m -3,9 C -4,8 C 21,4 km/h (4 Bft)
19.11.2004 15:00 2,1 C 68 % 1016 hPa 0,0 l/m -3,2 C -5,1 C 19,3 km/h (3 Bft)
19.11.2004 16:00 1,6 C 65 % 1016 hPa 0,0 l/m -4,4 C -6,4 C 20,8 km/h (4 Bft)
19.11.2004 17:00 0,8 C 69 % 1017 hPa 0,0 l/m -4,3 C -6,3 C 18,8 km/h (3 Bft)
19.11.2004 18:00 0,4 C 71 % 1018 hPa 0,0 l/m -4,3 C -6,0 C 16,5 km/h (3 Bft)
19.11.2004 19:00 0,2 C 72 % 1019 hPa 0,0 l/m -4,4 C -8,0 C 19,6 km/h (3 Bft)
19.11.2004 20:00 -0,1 C 75 % 1019 hPa 0,0 l/m -4,0 C -8,0 C 18,5 km/h (3 Bft)
19.11.2004 21:00 -0,4 C 74 % 1020 hPa 0,0 l/m -4,4 C -4,0 C 11,2 km/h (2 Bft)
19.11.2004 22:00 -0,7 C 75 % 1021 hPa 0,0 l/m -4,5 C -5,3 C 13,6 km/h (3 Bft)
19.11.2004 23:00 -1,2 C 78 % 1021 hPa 0,0 l/m -4,5 C -4,8 C 11,5 km/h (2 Bft)
20.11.2004 00:00 -1,6 C 79 % 1021 hPa 0,0 l/m -4,7 C -4,9 C 11,2 km/h (2 Bft)
20.11.2004 01:00 -1,7 C 81 % 1021 hPa 0,0 l/m -4,5 C -6,3 C 12,9 km/h (3 Bft)
20.11.2004 02:00 -1,6 C 84 % 1021 hPa 0,0 l/m -4,0 C -7,1 C 14,5 km/h (3 Bft)
20.11.2004 03:00 -1,8 C 85 % 1021 hPa 0,0 l/m -3,9 C -8,1 C 15,4 km/h (3 Bft)
20.11.2004 04:00 -1,9 C 83 % 1021 hPa 0,0 l/m -4,5 C -6,3 C 12,7 km/h (3 Bft)
20.11.2004 05:00 -1,9 C 80 % 1021 hPa 0,0 l/m -4,9 C -7,8 C 15,3 km/h (3 Bft)
20.11.2004 06:00 -1,8 C 75 % 1021 hPa 0,0 l/m -5,7 C -7,5 C 14,2 km/h (3 Bft)
20.11.2004 07:00 -1,8 C 73 % 1022 hPa 0,0 l/m -6,0 C -7,2 C 14,5 km/h (3 Bft)
20.11.2004 08:00 -1,7 C 74 % 1022 hPa 0,0 l/m -5,7 C -7,1 C 14,5 km/h (3 Bft)
20.11.2004 09:00 -0,3 C 66 % 1022 hPa 0,0 l/m -5,8 C -6,9 C 16,6 km/h (3 Bft)
20.11.2004 10:00 0,5 C 62 % 1022 hPa 0,0 l/m -6,0 C -6,0 C 17,2 km/h (3 Bft)
20.11.2004 11:00 0,7 C 60 % 1022 hPa 0,0 l/m -6,1 C -4,2 C 14,8 km/h (3 Bft)
20.11.2004 12:00 0,2 C 72 % 1021 hPa 0,0 l/m -4,3 C -4,1 C 13,2 km/h (3 Bft)
20.11.2004 13:00 -0,1 C 78 % 1021 hPa 0,0 l/m -3,5 C -3,7 C 11,6 km/h (2 Bft)
20.11.2004 14:00 0,1 C 75 % 1021 hPa 0,0 l/m -3,9 C -3,5 C 12,0 km/h (2 Bft)
20.11.2004 15:00 0,1 C 73 % 1021 hPa 0,0 l/m -4,2 C -2,6 C 9,5 km/h (2 Bft)
20.11.2004 16:00 -0,4 C 69 % 1021 hPa 0,0 l/m -5,4 C -3,6 C 11,1 km/h (2 Bft)
20.11.2004 17:00 -1,2 C 71 % 1021 hPa 0,0 l/m -5,8 C -5,1 C 12,8 km/h (3 Bft)
20.11.2004 18:00 -1,6 C 75 % 1021 hPa 0,0 l/m -5,4 C -6,9 C 14,3 km/h (3 Bft)
20.11.2004 19:00 -2,0 C 75 % 1023 hPa 0,0 l/m -5,8 C -5,4 C 11,8 km/h (2 Bft)
20.11.2004 20:00 -2,3 C 83 % 1023 hPa 0,0 l/m -4,7 C -5,5 C 10,7 km/h (2 Bft)
20.11.2004 21:00 -2,4 C 84 % 1023 hPa 0,0 l/m -4,7 C -6,5 C 12,4 km/h (3 Bft)
20.11.2004 22:00 -3,1 C 83 % 1023 hPa 0,0 l/m -5,5 C -6,9 C 11,2 km/h (2 Bft)
20.11.2004 23:00 -4,0 C 87 % 1023 hPa 0,0 l/m -5,8 C -5,9 C 8,2 km/h (2 Bft)
21.11.2004 00:00 -3,0 C 77 % 1023 hPa 0,0 l/m -6,4 C -7,4 C 12,9 km/h (3 Bft)
21.11.2004 01:00 -3,2 C 75 % 1023 hPa 0,0 l/m -7,0 C -4,7 C 7,5 km/h (2 Bft)
21.11.2004 02:00 -4,1 C 79 % 1023 hPa 0,0 l/m -7,2 C -4,5 C 4,6 km/h (1 Bft)
21.11.2004 03:00 -3,1 C 77 % 1023 hPa 0,0 l/m -6,5 C -6,6 C 11,7 km/h (2 Bft)
21.11.2004 04:00 -3,7 C 75 % 1025 hPa 0,0 l/m -7,5 C -4,9 C 5,7 km/h (1 Bft)
21.11.2004 05:00 -5,6 C 89 % 1026 hPa 0,0 l/m -7,1 C -7,8 C 8,0 km/h (2 Bft)
21.11.2004 06:00 -5,8 C 95 % 1026 hPa 0,0 l/m -6,4 C -5,9 C 1,7 km/h (1 Bft)
21.11.2004 07:00 -5,8 C 97 % 1026 hPa 0,0 l/m -6,2 C -5,8 C 0,0 km/h (0 Bft)
21.11.2004 08:00 -5,8 C 97 % 1026 hPa 0,0 l/m -6,2 C -5,8 C 0,1 km/h (0 Bft)
21.11.2004 09:00 -4,3 C 100 % 1026 hPa 0,0 l/m -4,3 C -4,4 C 3,0 km/h (1 Bft)
21.11.2004 10:00 -3,2 C 100 % 1027 hPa 0,0 l/m -3,2 C -3,2 C 0,0 km/h (0 Bft)
21.11.2004 11:00 -0,7 C 100 % 1027 hPa 0,0 l/m -0,8 C -3,4 C 9,2 km/h (2 Bft)
21.11.2004 12:00 2,6 C 76 % 1027 hPa 0,0 l/m -1,3 C -1,4 C 12,3 km/h (3 Bft)
21.11.2004 13:00 3,8 C 62 % 1026 hPa 0,0 l/m -2,7 C -0,1 C 12,2 km/h (2 Bft)
21.11.2004 14:00 3,7 C 65 % 1026 hPa 0,0 l/m -2,3 C -0,8 C 13,7 km/h (3 Bft)
21.11.2004 15:00 2,6 C 71 % 1026 hPa 0,0 l/m -2,1 C -1,0 C 11,3 km/h (2 Bft)
21.11.2004 16:00 1,3 C 75 % 1026 hPa 0,0 l/m -2,7 C 0,4 C 6,5 km/h (2 Bft)
21.11.2004 17:00 0,1 C 80 % 1026 hPa 0,0 l/m -2,9 C -0,8 C 5,0 km/h (1 Bft)
21.11.2004 18:00 -0,8 C 83 % 1025 hPa 0,0 l/m -3,4 C -1,0 C 0,5 km/h (0 Bft)
21.11.2004 19:00 -1,3 C 88 % 1025 hPa 0,0 l/m -3,1 C -1,3 C 0,3 km/h (0 Bft)
21.11.2004 20:00 -0,7 C 91 % 1025 hPa 0,0 l/m -2,0 C -1,7 C 6,3 km/h (2 Bft)
21.11.2004 21:00 -0,1 C 93 % 1025 hPa 0,0 l/m -1,2 C -0,6 C 5,3 km/h (1 Bft)
21.11.2004 22:00 0,2 C 94 % 1025 hPa 0,0 l/m -0,7 C -0,2 C 5,3 km/h (1 Bft)
21.11.2004 23:00 0,5 C 93 % 1024 hPa 0,0 l/m -0,5 C -0,7 C 7,4 km/h (2 Bft)
Min-Datum _ 16.11.04 19.11.04 19.11.04 - 21.11.04 15.11.04 15.11.04
_ Min-Zeit 03:01 13:29 06:00 - 04:44 08:43 00:00
Minimum _ -6,5 C 48 % 1002 hPa - -8,1 C -12,4 C 0,0 km/h (0 Bft)
Max-Datum _ 18.11.04 15.11.04 16.11.04 19.11.04 19.11.04 18.11.04 19.11.04
_ Max-Zeit 11:19 08:41 17:57 07:58 07:55 11:26 04:32
Maximum _ 7,7 C 100 % 1029 hPa 3,0 l/m 4,9 C 7,6 C 65,0 km/h
SO (8 Bft)
Durchschnitt _ 0,7 C 81 % 1023 hPa #5,0 l/m -2,3 C -3,5 C 13,0 km/h (3 Bft)

Durchschnitt Minimum Temp.0,3 C
Durchschnitt Maximum Temp.1,1 C